| time (UTC) | temp F | wind direction | speed MPH | gust MPH | rain 1hr in | rain 24hr in | rain mn in | humidity % | barometer mb |
| 20260503215156 | 68 | 276 | 0.0 | 2.0 | 0.00 | 0.00 | 0.00 | 41 | 1017.7 |
| 20260503214654 | 68 | 238 | 4.0 | 5.0 | 0.00 | 0.00 | 0.00 | 38 | 1017.9 |
| 20260503214149 | 67 | 281 | 0.0 | 3.0 | 0.00 | 0.00 | 0.00 | 40 | 1017.9 |
| 20260503213644 | 67 | 262 | 0.0 | 3.0 | 0.00 | 0.00 | 0.00 | 40 | 1017.9 |
| 20260503213140 | 68 | 258 | 3.0 | 5.0 | 0.00 | 0.00 | 0.00 | 40 | 1018.0 |
| 20260503212637 | 68 | 261 | 0.0 | 7.0 | 0.00 | 0.00 | 0.00 | 39 | 1017.9 |
| 20260503212135 | 68 | 195 | 7.0 | 10.0 | 0.00 | 0.00 | 0.00 | 39 | 1017.9 |
| 20260503211632 | 68 | 222 | 3.0 | 5.0 | 0.00 | 0.00 | 0.00 | 38 | 1018.1 |
| 20260503211132 | 67 | 244 | 1.0 | 2.0 | 0.00 | 0.00 | 0.00 | 38 | 1018.2 |
| 20260503210629 | 67 | 264 | 1.0 | 5.0 | 0.00 | 0.00 | 0.00 | 38 | 1018.1 |
| 20260503210126 | 67 | 289 | 1.0 | 3.0 | 0.00 | 0.00 | 0.00 | 39 | 1018.2 |
| 20260503205622 | 68 | 258 | 5.0 | 8.0 | 0.00 | 0.00 | 0.00 | 38 | 1018.3 |
| 20260503205118 | 68 | 248 | 3.0 | 7.0 | 0.00 | 0.00 | 0.00 | 40 | 1018.5 |
| 20260503204615 | 69 | 250 | 1.0 | 8.0 | 0.00 | 0.00 | 0.00 | 38 | 1018.5 |
| 20260503204113 | 69 | 282 | 0.0 | 5.0 | 0.00 | 0.00 | 0.00 | 36 | 1018.5 |
| 20260503203610 | 67 | 277 | 1.0 | 2.0 | 0.00 | 0.00 | 0.00 | 36 | 1018.6 |
| 20260503203108 | 68 | 252 | 2.0 | 7.0 | 0.00 | 0.00 | 0.00 | 37 | 1018.8 |
| 20260503202605 | 68 | 265 | 0.0 | 3.0 | 0.00 | 0.00 | 0.00 | 36 | 1018.9 |
| 20260503202103 | 68 | 265 | 2.0 | 7.0 | 0.00 | 0.00 | 0.00 | 36 | 1018.8 |
| 20260503201601 | 67 | 263 | 3.0 | 3.0 | 0.00 | 0.00 | 0.00 | 38 | 1018.9 |
| 20260503201058 | 66 | 273 | 0.0 | 5.0 | 0.00 | 0.00 | 0.00 | 39 | 1019.1 |
| 20260503200554 | 67 | 266 | 5.0 | 7.0 | 0.00 | 0.00 | 0.00 | 39 | 1019.2 |
| 20260503200050 | 68 | 271 | 3.0 | 8.0 | 0.00 | 0.00 | 0.00 | 35 | 1019.5 |
| 20260503195547 | 66 | 272 | 0.0 | 0.0 | 0.00 | 0.00 | 0.00 | 35 | 1019.5 |
| 20260503195044 | 66 | 239 | 1.0 | 3.0 | 0.00 | 0.00 | 0.00 | 35 | 1019.5 |
| 20260503194541 | 67 | 266 | 3.0 | 7.0 | 0.00 | 0.00 | 0.00 | 39 | 1019.7 |
| 20260503194040 | 66 | 262 | 3.0 | 5.0 | 0.00 | 0.00 | 0.00 | 36 | 1019.7 |
| 20260503193538 | 67 | 240 | 5.0 | 7.0 | 0.00 | 0.00 | 0.00 | 36 | 1019.7 |
| 20260503193033 | 66 | 272 | 2.0 | 3.0 | 0.00 | 0.00 | 0.00 | 37 | 1019.9 |
| 20260503192530 | 64 | 265 | 1.0 | 5.0 | 0.00 | 0.00 | 0.00 | 39 | 1019.8 |
| 20260503192026 | 64 | 260 | 3.0 | 5.0 | 0.00 | 0.00 | 0.00 | 38 | 1020.0 |
| 20260503191523 | 65 | 245 | 4.0 | 8.0 | 0.00 | 0.00 | 0.00 | 40 | 1019.9 |
| 20260503191020 | 65 | 249 | 4.0 | 5.0 | 0.00 | 0.00 | 0.00 | 41 | 1020.0 |
| 20260503190516 | 66 | 252 | 2.0 | 7.0 | 0.00 | 0.00 | 0.00 | 42 | 1020.1 |
| 20260503190014 | 64 | 300 | 2.0 | 5.0 | 0.00 | 0.00 | 0.00 | 48 | 1020.1 |
| 20260503185509 | 64 | 262 | 1.0 | 8.0 | 0.00 | 0.00 | 0.00 | 40 | 1020.2 |
| 20260503185004 | 64 | 244 | 4.0 | 7.0 | 0.00 | 0.00 | 0.00 | 41 | 1020.3 |
| 20260503184501 | 64 | 238 | 1.0 | 7.0 | 0.00 | 0.00 | 0.00 | 38 | 1020.3 |
| 20260503183957 | 64 | 235 | 4.0 | 7.0 | 0.00 | 0.00 | 0.00 | 40 | 1020.4 |
| 20260503183454 | 63 | 258 | 2.0 | 5.0 | 0.00 | 0.00 | 0.00 | 41 | 1020.2 |
| 20260503182950 | 64 | 284 | 3.0 | 10.0 | 0.00 | 0.00 | 0.00 | 41 | 1020.4 |
| 20260503182449 | 64 | 299 | 2.0 | 3.0 | 0.00 | 0.00 | 0.00 | 41 | 1020.5 |
| 20260503181947 | 63 | 290 | 1.0 | 2.0 | 0.00 | 0.00 | 0.00 | 42 | 1020.5 |
| 20260503181444 | 63 | 236 | 3.0 | 5.0 | 0.00 | 0.00 | 0.00 | 37 | 1020.9 |
| 20260503180939 | 63 | 132 | 2.0 | 7.0 | 0.00 | 0.00 | 0.00 | 41 | 1021.0 |
| 20260503180438 | 64 | 261 | 3.0 | 5.0 | 0.00 | 0.00 | 0.00 | 40 | 1020.7 |
| 20260503175934 | 63 | 261 | 2.0 | 5.0 | 0.00 | 0.00 | 0.00 | 47 | 1020.8 |
| 20260503175433 | 63 | 301 | 1.0 | 3.0 | 0.00 | 0.00 | 0.00 | 42 | 1020.9 |
| 20260503174928 | 62 | 229 | 4.0 | 7.0 | 0.00 | 0.00 | 0.00 | 42 | 1021.0 |
| 20260503174427 | 63 | 229 | 7.0 | 8.0 | 0.00 | 0.00 | 0.00 | 43 | 1021.1 |
| 20260503173926 | 62 | 52 | 4.0 | 5.0 | 0.00 | 0.00 | 0.00 | 41 | 1021.1 |
| 20260503173423 | 62 | 225 | 2.0 | 3.0 | 0.00 | 0.00 | 0.00 | 40 | 1021.1 |
| 20260503172920 | 62 | 263 | 3.0 | 7.0 | 0.00 | 0.00 | 0.00 | 42 | 1021.2 |
| 20260503172417 | 62 | 305 | 4.0 | 7.0 | 0.00 | 0.00 | 0.00 | 40 | 1021.2 |
| 20260503171913 | 62 | 252 | 1.0 | 7.0 | 0.00 | 0.00 | 0.00 | 39 | 1021.4 |
| 20260503171410 | 63 | 278 | 3.0 | 7.0 | 0.00 | 0.00 | 0.00 | 39 | 1021.4 |
| 20260503170908 | 62 | 282 | 0.0 | 3.0 | 0.00 | 0.00 | 0.00 | 42 | 1021.6 |
| 20260503170404 | 61 | 302 | 4.0 | 7.0 | 0.00 | 0.00 | 0.00 | 40 | 1021.7 |
| 20260503150756 | 58 | 255 | 0.0 | 2.0 | 0.00 | 0.00 | 0.00 | 44 | 1022.7 |
| 20260503150252 | 58 | 225 | 2.0 | 5.0 | 0.00 | 0.00 | 0.00 | 41 | 1022.8 |
| 20260503140217 | 56 | 270 | 0.0 | 2.0 | 0.00 | 0.00 | 0.00 | 51 | 1022.6 |
| 20260503131146 | 48 | 269 | 0.0 | 0.0 | 0.00 | 0.00 | 0.00 | 82 | 1022.8 |
| 20260503130643 | 46 | 76 | 1.0 | 2.0 | 0.00 | 0.00 | 0.00 | 93 | 1022.6 |
| 20260503130141 | 46 | 295 | 1.0 | 2.0 | 0.00 | 0.00 | 0.00 | 99 | 1022.5 |
| 20260503120106 | 38 | 278 | 0.0 | 0.0 | 0.00 | 0.00 | 0.00 | 99 | 1022.2 |
| 20260503110533 | 35 | 278 | 0.0 | 0.0 | 0.00 | 0.00 | 0.00 | 99 | 1021.2 |
| 20260503090420 | 38 | 278 | 0.0 | 0.0 | 0.00 | 0.00 | 0.00 | 99 | 1020.6 |
| 20260503081346 | 39 | 278 | 0.0 | 0.0 | 0.00 | 0.00 | 0.00 | 99 | 1020.1 |
| 20260503080843 | 39 | 278 | 0.0 | 0.0 | 0.00 | 0.00 | 0.00 | 99 | 1020.0 |
| 20260503080340 | 39 | 278 | 0.0 | 0.0 | 0.00 | 0.00 | 0.00 | 99 | 1020.2 |
| 20260503072817 | 40 | 278 | 0.0 | 0.0 | 0.00 | 0.00 | 0.00 | 99 | 1019.9 |
| 20260503072314 | 40 | 278 | 0.0 | 0.0 | 0.00 | 0.00 | 0.00 | 99 | 1019.6 |
| 20260503071809 | 40 | 278 | 0.0 | 0.0 | 0.00 | 0.00 | 0.00 | 99 | 1019.5 |
| 20260503071307 | 40 | 278 | 0.0 | 0.0 | 0.00 | 0.00 | 0.00 | 99 | 1019.5 |
| 20260503070803 | 41 | 278 | 0.0 | 0.0 | 0.00 | 0.00 | 0.00 | 99 | 1019.4 |
| 20260503070301 | 41 | 278 | 0.0 | 0.0 | 0.00 | 0.00 | 0.00 | 99 | 1019.4 |
| 20260503060220 | 43 | 278 | 0.0 | 0.0 | 0.00 | 0.00 | 0.00 | 95 | 1019.4 |
| 20260503054707 | 45 | 278 | 0.0 | 0.0 | 0.00 | 0.00 | 0.00 | 93 | 1019.2 |
| 20260503054204 | 45 | 278 | 0.0 | 0.0 | 0.00 | 0.00 | 0.00 | 93 | 1019.0 |
| 20260503053702 | 45 | 278 | 0.0 | 0.0 | 0.00 | 0.00 | 0.00 | 93 | 1019.2 |
| 20260503053201 | 46 | 278 | 0.0 | 0.0 | 0.00 | 0.00 | 0.00 | 91 | 1019.1 |
| 20260503052657 | 46 | 278 | 0.0 | 0.0 | 0.00 | 0.00 | 0.00 | 90 | 1018.9 |
| 20260503052153 | 46 | 278 | 0.0 | 0.0 | 0.00 | 0.00 | 0.00 | 90 | 1019.1 |
| 20260503051648 | 46 | 278 | 0.0 | 0.0 | 0.00 | 0.00 | 0.00 | 89 | 1018.9 |
| 20260503051146 | 46 | 278 | 0.0 | 0.0 | 0.00 | 0.00 | 0.00 | 89 | 1019.0 |
| 20260503050643 | 47 | 278 | 0.0 | 0.0 | 0.00 | 0.00 | 0.00 | 89 | 1019.1 |
| 20260503050140 | 47 | 278 | 0.0 | 0.0 | 0.00 | 0.00 | 0.00 | 89 | 1018.9 |
| 20260503045637 | 46 | 278 | 0.0 | 0.0 | 0.00 | 0.00 | 0.00 | 91 | 1019.0 |
| 20260503045134 | 46 | 278 | 0.0 | 0.0 | 0.00 | 0.00 | 0.00 | 91 | 1018.9 |
| 20260503044631 | 46 | 278 | 0.0 | 0.0 | 0.00 | 0.00 | 0.00 | 91 | 1019.0 |
| 20260503044129 | 46 | 278 | 0.0 | 0.0 | 0.00 | 0.00 | 0.00 | 91 | 1018.9 |
| 20260503043626 | 46 | 278 | 0.0 | 0.0 | 0.00 | 0.00 | 0.00 | 93 | 1019.0 |
| 20260503043122 | 46 | 278 | 0.0 | 0.0 | 0.00 | 0.00 | 0.00 | 92 | 1019.0 |
| 20260503042619 | 46 | 278 | 0.0 | 0.0 | 0.00 | 0.00 | 0.00 | 90 | 1018.8 |
| 20260503042115 | 46 | 278 | 0.0 | 0.0 | 0.00 | 0.00 | 0.00 | 88 | 1018.9 |
| 20260503041612 | 46 | 278 | 0.0 | 0.0 | 0.00 | 0.00 | 0.00 | 88 | 1018.8 |
| 20260503041109 | 47 | 278 | 0.0 | 0.0 | 0.00 | 0.00 | 0.00 | 87 | 1018.7 |
| 20260503040606 | 47 | 278 | 0.0 | 0.0 | 0.00 | 0.00 | 0.00 | 85 | 1018.6 |
| 20260503040103 | 48 | 278 | 0.0 | 0.0 | 0.00 | 0.00 | 0.00 | 83 | 1018.6 |
| 20260503035559 | 48 | 278 | 0.0 | 0.0 | 0.00 | 0.00 | 0.00 | 83 | 1018.7 |
| 20260503035058 | 48 | 278 | 0.0 | 0.0 | 0.00 | 0.00 | 0.00 | 83 | 1018.7 |
| 20260503034554 | 49 | 278 | 0.0 | 0.0 | 0.00 | 0.00 | 0.00 | 83 | 1018.5 |
| 20260503034052 | 49 | 278 | 0.0 | 0.0 | 0.00 | 0.00 | 0.00 | 84 | 1018.7 |
| 20260503033548 | 50 | 278 | 0.0 | 0.0 | 0.00 | 0.00 | 0.00 | 82 | 1018.6 |
| 20260503033046 | 50 | 278 | 0.0 | 0.0 | 0.00 | 0.00 | 0.00 | 83 | 1018.7 |
| 20260503032545 | 50 | 278 | 0.0 | 0.0 | 0.00 | 0.00 | 0.00 | 82 | 1018.7 |
| 20260503032043 | 50 | 278 | 0.0 | 0.0 | 0.00 | 0.00 | 0.00 | 82 | 1018.3 |
| 20260503031540 | 50 | 278 | 0.0 | 0.0 | 0.00 | 0.00 | 0.00 | 82 | 1018.5 |
| 20260503031037 | 50 | 278 | 0.0 | 0.0 | 0.00 | 0.00 | 0.00 | 83 | 1018.6 |
| 20260503030533 | 50 | 278 | 0.0 | 0.0 | 0.00 | 0.00 | 0.00 | 81 | 1018.6 |
| 20260503030030 | 50 | 278 | 0.0 | 0.0 | 0.00 | 0.00 | 0.00 | 80 | 1018.5 |
| 20260503025526 | 51 | 278 | 0.0 | 0.0 | 0.00 | 0.00 | 0.00 | 81 | 1018.2 |
| 20260503025025 | 51 | 278 | 0.0 | 0.0 | 0.00 | 0.00 | 0.00 | 81 | 1018.2 |
| 20260503024520 | 51 | 278 | 0.0 | 0.0 | 0.00 | 0.00 | 0.00 | 77 | 1018.3 |
| 20260503024018 | 51 | 278 | 0.0 | 0.0 | 0.00 | 0.00 | 0.00 | 78 | 1018.2 |
| 20260503023515 | 51 | 278 | 0.0 | 0.0 | 0.00 | 0.00 | 0.00 | 77 | 1018.2 |
| 20260503023012 | 51 | 278 | 0.0 | 0.0 | 0.00 | 0.00 | 0.00 | 77 | 1018.0 |
| 20260503022508 | 51 | 278 | 0.0 | 0.0 | 0.00 | 0.00 | 0.00 | 77 | 1017.9 |
| 20260503022002 | 51 | 278 | 0.0 | 0.0 | 0.00 | 0.00 | 0.00 | 77 | 1018.1 |
| 20260503021459 | 51 | 278 | 0.0 | 0.0 | 0.00 | 0.00 | 0.00 | 74 | 1018.1 |
| 20260503020957 | 51 | 278 | 0.0 | 0.0 | 0.00 | 0.00 | 0.00 | 78 | 1018.0 |
| 20260503020454 | 51 | 278 | 0.0 | 0.0 | 0.00 | 0.00 | 0.00 | 75 | 1018.1 |
| 20260503015950 | 51 | 278 | 0.0 | 0.0 | 0.00 | 0.00 | 0.00 | 74 | 1017.9 |
| 20260503015447 | 51 | 279 | 0.0 | 0.0 | 0.00 | 0.00 | 0.00 | 74 | 1017.6 |
| 20260503014944 | 50 | 279 | 0.0 | 0.0 | 0.00 | 0.00 | 0.00 | 73 | 1017.7 |
| 20260503014441 | 50 | 277 | 0.0 | 0.0 | 0.00 | 0.00 | 0.00 | 71 | 1017.8 |
| 20260503013939 | 50 | 277 | 0.0 | 0.0 | 0.00 | 0.00 | 0.00 | 75 | 1017.7 |
| 20260503013435 | 50 | 277 | 0.0 | 0.0 | 0.00 | 0.00 | 0.00 | 76 | 1017.5 |
| 20260503012932 | 50 | 278 | 0.0 | 0.0 | 0.00 | 0.00 | 0.00 | 78 | 1017.4 |
| 20260503012431 | 50 | 278 | 0.0 | 2.0 | 0.00 | 0.00 | 0.00 | 75 | 1017.3 |
| 20260503011926 | 50 | 277 | 0.0 | 0.0 | 0.00 | 0.00 | 0.00 | 80 | 1017.1 |
| 20260503011423 | 50 | 277 | 0.0 | 0.0 | 0.00 | 0.00 | 0.00 | 81 | 1017.1 |
| 20260503010921 | 50 | 277 | 0.0 | 0.0 | 0.00 | 0.00 | 0.00 | 82 | 1017.1 |
| 20260503010418 | 50 | 277 | 0.0 | 0.0 | 0.00 | 0.00 | 0.00 | 83 | 1017.0 |
| 20260503005914 | 50 | 279 | 0.0 | 0.0 | 0.00 | 0.00 | 0.00 | 85 | 1017.2 |
| 20260503005412 | 50 | 279 | 0.0 | 0.0 | 0.00 | 0.00 | 0.00 | 82 | 1016.9 |
| 20260503004908 | 50 | 279 | 0.0 | 0.0 | 0.00 | 0.00 | 0.00 | 80 | 1016.9 |
| 20260503004405 | 50 | 279 | 0.0 | 0.0 | 0.00 | 0.00 | 0.00 | 77 | 1016.6 |
| 20260503003903 | 50 | 279 | 0.0 | 0.0 | 0.00 | 0.00 | 0.00 | 73 | 1016.5 |
| 20260503003359 | 50 | 279 | 0.0 | 0.0 | 0.00 | 0.00 | 0.00 | 75 | 1016.4 |
| 20260503002856 | 51 | 279 | 0.0 | 0.0 | 0.00 | 0.00 | 0.00 | 75 | 1016.7 |
| 20260503002354 | 51 | 279 | 0.0 | 0.0 | 0.00 | 0.00 | 0.00 | 72 | 1016.3 |
| 20260503001850 | 52 | 279 | 0.0 | 0.0 | 0.00 | 0.00 | 0.00 | 70 | 1016.2 |
| 20260503001346 | 53 | 279 | 0.0 | 0.0 | 0.00 | 0.00 | 0.00 | 72 | 1016.2 |
| 20260503000844 | 53 | 279 | 0.0 | 0.0 | 0.00 | 0.00 | 0.00 | 69 | 1016.2 |
| 20260503000341 | 54 | 279 | 0.0 | 0.0 | 0.00 | 0.00 | 0.00 | 67 | 1016.1 |
| 20260502235838 | 55 | 279 | 0.0 | 0.0 | 0.00 | 0.00 | 0.00 | 63 | 1016.1 |
| 20260502235335 | 55 | 279 | 0.0 | 0.0 | 0.00 | 0.00 | 0.00 | 63 | 1016.0 |
| 20260502234832 | 56 | 279 | 0.0 | 0.0 | 0.00 | 0.00 | 0.00 | 62 | 1016.0 |
| 20260502234329 | 57 | 281 | 0.0 | 0.0 | 0.00 | 0.00 | 0.00 | 59 | 1015.8 |
| 20260502233826 | 57 | 249 | 1.0 | 2.0 | 0.00 | 0.00 | 0.00 | 53 | 1015.8 |
| 20260502233322 | 58 | 274 | 0.0 | 0.0 | 0.00 | 0.00 | 0.00 | 52 | 1016.0 |
| 20260502232819 | 58 | 270 | 0.0 | 3.0 | 0.00 | 0.00 | 0.00 | 50 | 1015.9 |
| 20260502232315 | 59 | 235 | 1.0 | 2.0 | 0.00 | 0.00 | 0.00 | 50 | 1015.7 |
| 20260502231812 | 59 | 293 | 0.0 | 3.0 | 0.00 | 0.00 | 0.00 | 48 | 1015.6 |
| 20260502231310 | 60 | 286 | 0.0 | 5.0 | 0.00 | 0.00 | 0.00 | 46 | 1015.7 |
| 20260502230808 | 60 | 290 | 0.0 | 2.0 | 0.00 | 0.00 | 0.00 | 49 | 1015.6 |
| 20260502230306 | 60 | 280 | 0.0 | 3.0 | 0.00 | 0.00 | 0.00 | 47 | 1015.8 |
| 20260502225802 | 60 | 310 | 0.0 | 3.0 | 0.00 | 0.00 | 0.00 | 48 | 1015.7 |
| 20260502225259 | 61 | 100 | 2.0 | 3.0 | 0.00 | 0.00 | 0.00 | 46 | 1015.6 |
| 20260502224755 | 61 | 245 | 1.0 | 3.0 | 0.00 | 0.00 | 0.00 | 42 | 1015.7 |
| 20260502224252 | 61 | 257 | 2.0 | 3.0 | 0.00 | 0.00 | 0.00 | 43 | 1015.8 |
| 20260502223749 | 62 | 258 | 0.0 | 2.0 | 0.00 | 0.00 | 0.00 | 41 | 1015.8 |
| 20260502223247 | 62 | 198 | 2.0 | 3.0 | 0.00 | 0.00 | 0.00 | 42 | 1015.7 |
| 20260502222745 | 63 | 275 | 1.0 | 7.0 | 0.00 | 0.00 | 0.00 | 42 | 1015.7 |
| 20260502222241 | 63 | 224 | 3.0 | 5.0 | 0.00 | 0.00 | 0.00 | 43 | 1015.6 |
| 20260502221737 | 64 | 268 | 4.0 | 5.0 | 0.00 | 0.00 | 0.00 | 41 | 1015.3 |
| 20260502221234 | 64 | 300 | 2.0 | 2.0 | 0.00 | 0.00 | 0.00 | 39 | 1015.4 |
| 20260502220730 | 64 | 262 | 0.0 | 3.0 | 0.00 | 0.00 | 0.00 | 44 | 1015.4 |
| 20260502220227 | 62 | 252 | 0.0 | 3.0 | 0.00 | 0.00 | 0.00 | 40 | 1015.3 |
| 20260502215724 | 62 | 356 | 1.0 | 10.0 | 0.00 | 0.00 | 0.00 | 41 | 1015.3 |